createdAt,value
2018-08-12T00:01:31.370Z,5.80
2018-08-12T00:03:59.745Z,7.67
2018-08-12T00:06:28.077Z,7.87
2018-08-12T00:08:56.376Z,8.07
2018-08-12T00:11:24.803Z,7.67
2018-08-12T00:13:53.077Z,6.73
2018-08-12T00:16:21.371Z,7.17
2018-08-12T00:18:49.798Z,8.00
2018-08-12T00:21:18.116Z,8.17
2018-08-12T00:23:46.571Z,7.50
2018-08-12T00:26:14.871Z,6.93
2018-08-12T00:28:44.059Z,6.87
2018-08-12T00:31:12.356Z,5.93
2018-08-12T00:33:40.629Z,7.67
2018-08-12T00:36:08.899Z,6.07
2018-08-12T00:38:37.157Z,7.87
2018-08-12T00:41:05.454Z,5.13
2018-08-12T00:43:33.701Z,4.87
2018-08-12T00:46:02.023Z,4.67
2018-08-12T00:48:30.291Z,5.67
2018-08-12T00:50:58.567Z,6.97
2018-08-12T00:53:26.839Z,5.63
2018-08-12T00:55:55.106Z,4.77
2018-08-12T00:58:23.379Z,6.70
2018-08-12T01:00:51.651Z,5.77
2018-08-12T01:03:20.300Z,5.87
2018-08-12T01:05:48.616Z,6.70
2018-08-12T01:08:16.850Z,5.47
2018-08-12T01:10:45.096Z,6.87
2018-08-12T01:13:13.350Z,5.73
2018-08-12T01:15:41.588Z,7.43
2018-08-12T01:18:10.008Z,5.10
2018-08-12T01:20:38.263Z,5.80
2018-08-12T01:23:06.544Z,5.60
2018-08-12T01:25:34.785Z,5.87
2018-08-12T01:28:03.027Z,6.23
2018-08-12T01:30:31.275Z,7.03
2018-08-12T01:32:59.526Z,9.07
2018-08-12T01:35:27.807Z,7.20
2018-08-12T01:37:56.066Z,5.70
2018-08-12T01:40:24.347Z,8.60
2018-08-12T01:42:52.619Z,6.57
2018-08-12T01:45:21.583Z,6.77
2018-08-12T01:47:49.903Z,5.40
2018-08-12T01:50:19.615Z,6.80
2018-08-12T01:52:47.915Z,7.57
2018-08-12T01:55:16.380Z,6.10
2018-08-12T01:57:44.619Z,8.27
2018-08-12T02:00:14.176Z,6.17
2018-08-12T02:02:42.489Z,5.97
2018-08-12T02:05:10.754Z,5.73
2018-08-12T02:07:39.059Z,5.43
2018-08-12T02:10:07.897Z,6.17
2018-08-12T02:12:36.196Z,5.13
2018-08-12T02:15:04.899Z,5.63
2018-08-12T02:17:33.210Z,5.37
2018-08-12T02:20:01.465Z,7.67
2018-08-12T02:22:29.926Z,6.97
2018-08-12T02:24:58.185Z,9.47
2018-08-12T02:27:26.459Z,8.30
2018-08-12T02:29:54.669Z,6.97
2018-08-12T02:32:22.899Z,7.33
2018-08-12T02:34:51.159Z,9.37
2018-08-12T02:37:19.721Z,9.37
2018-08-12T02:39:47.963Z,10.40
2018-08-12T02:42:16.259Z,8.93
2018-08-12T02:44:44.525Z,8.50
2018-08-12T02:47:13.295Z,8.53
2018-08-12T02:49:41.547Z,6.20
2018-08-12T02:52:09.828Z,9.43
2018-08-12T02:54:38.089Z,10.03
2018-08-12T02:57:06.366Z,7.60
2018-08-12T02:59:34.661Z,9.03
2018-08-12T03:02:02.910Z,9.70
2018-08-12T03:04:31.166Z,8.47
2018-08-12T03:06:59.411Z,7.20
2018-08-12T03:09:27.674Z,7.57
2018-08-12T03:11:55.964Z,8.17
2018-08-12T03:14:24.230Z,8.43
2018-08-12T03:16:52.483Z,7.93
2018-08-12T03:19:20.859Z,8.63
2018-08-12T03:21:49.146Z,7.93
2018-08-12T03:24:17.503Z,8.40
2018-08-12T03:26:45.746Z,11.10
2018-08-12T03:29:14.008Z,10.53
2018-08-12T03:31:42.269Z,9.27
2018-08-12T03:34:10.551Z,8.00
2018-08-12T03:36:38.872Z,9.57
2018-08-12T03:39:08.016Z,8.20
2018-08-12T03:41:36.268Z,9.07
2018-08-12T03:44:04.616Z,9.63
2018-08-12T03:46:32.873Z,9.27
2018-08-12T03:49:01.137Z,9.27
2018-08-12T03:51:29.371Z,11.23
2018-08-12T03:53:57.740Z,9.63
2018-08-12T03:56:26.002Z,7.70
2018-08-12T03:58:54.263Z,8.60
2018-08-12T04:01:22.598Z,7.67
2018-08-12T04:03:50.942Z,9.77
2018-08-12T04:06:19.324Z,8.73
2018-08-12T04:08:47.582Z,8.37
2018-08-12T04:11:15.827Z,7.47
2018-08-12T04:13:44.194Z,10.53
2018-08-12T04:16:12.459Z,7.50
2018-08-12T04:18:40.737Z,7.67
2018-08-12T04:21:08.988Z,7.60
2018-08-12T04:23:37.225Z,10.67
2018-08-12T04:26:05.735Z,8.80
2018-08-12T04:28:33.994Z,6.27
2018-08-12T04:31:02.363Z,7.17
2018-08-12T04:33:30.747Z,10.33
2018-08-12T04:35:58.995Z,7.07
2018-08-12T04:38:27.260Z,6.90
2018-08-12T04:40:55.512Z,7.33
2018-08-12T04:43:23.759Z,8.57
2018-08-12T04:45:52.167Z,7.53
2018-08-12T04:48:20.666Z,6.40
2018-08-12T04:50:48.940Z,6.77
2018-08-12T04:53:17.222Z,6.30
2018-08-12T04:55:45.471Z,7.00
2018-08-12T04:58:13.753Z,6.30
2018-08-12T05:00:42.120Z,5.97
2018-08-12T05:03:10.428Z,6.47
2018-08-12T05:05:38.680Z,5.83
2018-08-12T05:08:06.968Z,7.13
2018-08-12T05:10:35.244Z,6.50
2018-08-12T05:13:03.491Z,7.27
2018-08-12T05:15:31.872Z,6.93
2018-08-12T05:18:00.166Z,6.53
2018-08-12T05:20:28.474Z,7.27
2018-08-12T05:22:56.763Z,5.13
2018-08-12T05:25:25.010Z,7.87
2018-08-12T05:27:53.353Z,6.50
2018-08-12T05:30:21.602Z,5.37
2018-08-12T05:32:49.889Z,4.13
2018-08-12T05:35:18.168Z,7.80
2018-08-12T05:37:46.536Z,5.10
2018-08-12T05:40:15.158Z,6.60
2018-08-12T05:42:43.475Z,5.13
2018-08-12T05:45:11.740Z,4.87
2018-08-12T05:47:40.411Z,6.90
2018-08-12T05:50:09.905Z,10.80
2018-08-12T05:52:38.171Z,5.37
2018-08-12T05:55:06.952Z,5.90
2018-08-12T05:57:35.231Z,4.53
2018-08-12T06:00:03.656Z,5.17
2018-08-12T06:02:31.913Z,4.10
2018-08-12T06:05:00.203Z,5.60
2018-08-12T06:07:28.451Z,5.27
2018-08-12T06:09:56.772Z,9.10
2018-08-12T06:12:25.036Z,6.27
2018-08-12T06:14:53.283Z,6.43
2018-08-12T06:17:21.607Z,7.33
2018-08-12T06:19:49.858Z,7.30
2018-08-12T06:22:18.147Z,5.67
2018-08-12T06:24:46.391Z,4.10
2018-08-12T06:27:14.688Z,5.10
2018-08-12T06:29:42.983Z,4.47
2018-08-12T06:32:11.179Z,3.97
2018-08-12T06:34:39.375Z,5.73
2018-08-12T06:37:08.526Z,8.03
2018-08-12T06:39:36.742Z,3.53
2018-08-12T06:42:05.031Z,4.40
2018-08-12T06:44:33.258Z,4.93
2018-08-12T06:47:01.467Z,3.97
2018-08-12T06:49:29.667Z,5.87
2018-08-12T06:51:57.968Z,6.80
2018-08-12T06:54:26.234Z,3.30
2018-08-12T06:56:54.451Z,4.40
2018-08-12T06:59:22.644Z,2.90
2018-08-12T07:01:50.838Z,4.37
2018-08-12T07:04:19.134Z,3.53
2018-08-12T07:06:47.489Z,6.83
2018-08-12T07:09:15.679Z,3.67
2018-08-12T07:11:43.896Z,2.90
2018-08-12T07:14:12.193Z,2.77
2018-08-12T07:16:40.392Z,4.17
2018-08-12T07:19:09.036Z,5.87
2018-08-12T07:21:37.235Z,2.90
2018-08-12T07:24:05.429Z,4.10
2018-08-12T07:26:34.323Z,3.33
2018-08-12T07:29:02.755Z,2.23
2018-08-12T07:31:31.276Z,3.20
2018-08-12T07:33:59.639Z,2.80
2018-08-12T07:36:27.859Z,4.70
2018-08-12T07:38:56.186Z,2.90
2018-08-12T07:41:24.975Z,1.87
2018-08-12T07:43:53.217Z,3.40
2018-08-12T07:46:21.894Z,6.43
2018-08-12T07:48:50.249Z,1.43
2018-08-12T07:51:19.375Z,4.67
2018-08-12T07:53:47.583Z,3.33
2018-08-12T07:56:15.791Z,2.40
2018-08-12T07:58:44.059Z,3.60
2018-08-12T08:01:12.274Z,4.17
2018-08-12T08:03:40.572Z,1.80
2018-08-12T08:06:09.059Z,3.03
2018-08-12T08:08:37.308Z,3.03
2018-08-12T08:11:05.592Z,3.03
2018-08-12T08:13:34.183Z,4.07
2018-08-12T08:16:06.435Z,3.37
2018-08-12T08:18:34.740Z,2.93
2018-08-12T08:21:02.988Z,3.50
2018-08-12T08:23:31.247Z,3.83
2018-08-12T08:25:59.532Z,2.70
2018-08-12T08:28:27.796Z,2.20
2018-08-12T08:30:56.035Z,4.07
2018-08-12T08:33:24.280Z,3.83
2018-08-12T08:35:52.558Z,2.13
2018-08-12T08:38:20.923Z,2.70
2018-08-12T08:40:49.163Z,3.93
2018-08-12T08:43:17.441Z,3.13
2018-08-12T08:45:45.678Z,2.60
2018-08-12T08:48:13.912Z,3.30
2018-08-12T08:50:42.256Z,3.43
2018-08-12T08:53:10.491Z,3.73
2018-08-12T08:55:38.831Z,3.97
2018-08-12T08:58:07.054Z,2.27
2018-08-12T09:00:35.297Z,1.93
2018-08-12T09:03:03.552Z,3.53
2018-08-12T09:05:31.846Z,1.57
2018-08-12T09:08:00.193Z,5.87
2018-08-12T09:10:28.411Z,7.70
2018-08-12T09:12:56.639Z,1.60
2018-08-12T09:15:24.861Z,1.60
2018-08-12T09:17:53.138Z,2.30
2018-08-12T09:20:22.292Z,4.10
2018-08-12T09:22:50.628Z,4.50
2018-08-12T09:25:18.865Z,3.60
2018-08-12T09:27:47.133Z,2.67
2018-08-12T09:30:17.760Z,5.00
2018-08-12T09:32:46.284Z,2.20
2018-08-12T09:35:14.554Z,3.93
2018-08-12T09:37:42.888Z,3.17
2018-08-12T09:40:13.437Z,3.43
2018-08-12T09:42:42.666Z,3.20
2018-08-12T09:45:12.776Z,2.20
2018-08-12T09:50:16.480Z,3.37
2018-08-12T09:52:45.095Z,3.10
2018-08-12T09:55:14.068Z,5.30
2018-08-12T09:57:42.299Z,2.60
2018-08-12T10:00:16.783Z,2.37
2018-08-12T10:02:45.035Z,1.63
2018-08-12T10:05:13.355Z,2.37
2018-08-12T10:07:41.677Z,2.17
2018-08-12T10:10:09.910Z,3.00
2018-08-12T10:12:38.213Z,3.90
2018-08-12T10:15:06.678Z,3.40
2018-08-12T10:17:35.220Z,1.93
2018-08-12T10:20:03.574Z,2.77
2018-08-12T10:22:31.852Z,2.93
2018-08-12T10:25:00.151Z,3.10
2018-08-12T10:27:28.436Z,3.07
2018-08-12T10:29:56.643Z,5.73
2018-08-12T10:32:24.863Z,4.10
2018-08-12T10:34:53.143Z,2.30
2018-08-12T10:37:22.232Z,2.00
2018-08-12T10:39:50.550Z,1.90
2018-08-12T10:42:19.161Z,1.83
2018-08-12T10:44:50.155Z,2.40
2018-08-12T10:47:18.443Z,4.80
2018-08-12T10:49:47.315Z,2.07
2018-08-12T10:52:15.544Z,2.80
2018-08-12T10:54:43.916Z,2.23
2018-08-12T10:57:12.184Z,5.03
2018-08-12T10:59:40.467Z,1.73
2018-08-12T11:02:08.742Z,2.40
2018-08-12T11:04:37.871Z,2.00
2018-08-12T11:07:06.219Z,1.83
2018-08-12T11:09:34.494Z,2.43
2018-08-12T11:12:03.527Z,5.03
2018-08-12T11:14:32.506Z,3.07
2018-08-12T11:17:00.831Z,3.40
2018-08-12T11:19:29.066Z,3.07
2018-08-12T11:21:57.271Z,1.77
2018-08-12T11:24:25.623Z,2.60
2018-08-12T11:26:53.925Z,3.95
2018-08-12T11:29:22.167Z,4.22
2018-08-12T11:31:50.503Z,1.32
2018-08-12T11:34:18.816Z,2.65
2018-08-12T11:36:47.079Z,2.90
2018-08-12T11:39:15.416Z,4.67
2018-08-12T11:41:43.685Z,1.95
2018-08-12T11:44:11.972Z,1.75
2018-08-12T11:46:40.206Z,5.47
2018-08-12T11:49:08.411Z,1.67
2018-08-12T11:51:36.627Z,5.00
2018-08-12T11:54:04.839Z,2.80
2018-08-12T11:56:34.301Z,1.67
2018-08-12T11:59:02.702Z,2.62
2018-08-12T12:01:30.934Z,2.15
2018-08-12T12:04:00.882Z,1.62
2018-08-12T12:06:29.111Z,2.98
2018-08-12T12:08:57.396Z,2.75
2018-08-12T12:11:25.608Z,1.92
2018-08-12T12:13:54.087Z,2.02
2018-08-12T12:16:22.300Z,1.50
2018-08-12T12:18:52.012Z,2.40
2018-08-12T12:21:20.733Z,3.83
2018-08-12T12:23:48.962Z,2.90
2018-08-12T12:26:17.195Z,5.90
2018-08-12T12:28:45.859Z,3.15
2018-08-12T12:31:14.292Z,5.35
2018-08-12T12:33:42.807Z,3.60
2018-08-12T12:36:11.035Z,3.08
2018-08-12T12:38:39.308Z,3.33
2018-08-12T12:41:07.664Z,1.47
2018-08-12T12:43:36.344Z,2.10
2018-08-12T12:46:04.628Z,2.22
2018-08-12T12:48:32.884Z,2.85
2018-08-12T12:51:01.182Z,2.67
2018-08-12T12:53:29.405Z,3.50
2018-08-12T12:55:58.460Z,1.67
2018-08-12T12:58:26.751Z,2.55
2018-08-12T13:00:55.815Z,2.20
2018-08-12T13:03:24.044Z,2.27
2018-08-12T13:05:52.355Z,1.67
2018-08-12T13:08:20.905Z,1.67
2018-08-12T13:10:49.155Z,1.35
2018-08-12T13:13:17.399Z,2.98
2018-08-12T13:15:45.779Z,3.45
2018-08-12T13:18:13.983Z,1.57
2018-08-12T13:20:42.211Z,1.72
2018-08-12T13:23:10.449Z,2.05
2018-08-12T13:25:38.659Z,1.57
2018-08-12T13:28:06.918Z,2.65
2018-08-12T13:30:35.241Z,1.77
2018-08-12T13:33:03.566Z,1.42
2018-08-12T13:35:31.848Z,2.95
2018-08-12T13:38:00.079Z,2.20
2018-08-12T13:40:28.339Z,1.27
2018-08-12T13:42:57.657Z,2.58
2018-08-12T13:45:25.904Z,2.40
2018-08-12T13:47:54.160Z,2.62
2018-08-12T13:50:23.608Z,3.02
2018-08-12T13:52:52.479Z,2.33
2018-08-12T13:55:21.496Z,2.58
2018-08-12T13:57:50.371Z,4.00
2018-08-12T14:00:21.121Z,1.80
2018-08-12T14:02:49.416Z,2.33
2018-08-12T14:05:18.089Z,2.40
2018-08-12T14:07:47.287Z,2.80
2018-08-12T14:10:15.876Z,1.50
2018-08-12T14:12:44.137Z,1.35
2018-08-12T14:15:14.190Z,2.12
2018-08-12T14:17:43.491Z,2.05
2018-08-12T14:20:12.571Z,2.55
2018-08-12T14:22:41.131Z,2.20
2018-08-12T14:25:09.795Z,2.27
2018-08-12T14:27:38.430Z,3.67
2018-08-12T14:30:07.946Z,4.47
2018-08-12T14:32:36.161Z,1.80
2018-08-12T14:35:04.931Z,2.15
2018-08-12T14:37:33.192Z,3.12
2018-08-12T14:40:01.557Z,2.27
2018-08-12T14:42:29.793Z,5.60
2018-08-12T14:44:58.014Z,1.50
2018-08-12T14:47:26.244Z,1.82
2018-08-12T14:49:54.596Z,2.72
2018-08-12T14:52:22.987Z,1.85
2018-08-12T14:54:51.314Z,1.57
2018-08-12T14:57:19.531Z,3.37
2018-08-12T14:59:47.788Z,2.72
2018-08-12T15:02:16.136Z,2.27
2018-08-12T15:04:44.401Z,2.67
2018-08-12T15:07:13.236Z,1.95
2018-08-12T15:09:41.535Z,3.02
2018-08-12T15:12:09.782Z,1.42
2018-08-12T15:14:38.024Z,1.62
2018-08-12T15:17:06.296Z,1.50
2018-08-12T15:19:34.542Z,4.33
2018-08-12T15:22:02.871Z,3.08
2018-08-12T15:24:31.132Z,2.70
2018-08-12T15:26:59.391Z,3.22
2018-08-12T15:29:27.747Z,1.90
2018-08-12T15:31:56.053Z,3.37
2018-08-12T15:34:24.297Z,1.57
2018-08-12T15:36:52.607Z,3.37
2018-08-12T15:39:21.098Z,2.83
2018-08-12T15:41:56.408Z,1.77
2018-08-12T15:44:24.808Z,3.27
2018-08-12T15:46:53.135Z,1.87
2018-08-12T15:49:21.541Z,3.35
2018-08-12T15:51:49.848Z,2.87
2018-08-12T15:54:18.105Z,2.57
2018-08-12T15:56:46.420Z,2.35
2018-08-12T15:59:14.707Z,1.93
2018-08-12T16:01:43.157Z,2.87
2018-08-12T16:04:11.413Z,1.50
2018-08-12T16:06:39.655Z,2.73
2018-08-12T16:09:08.758Z,2.90
2018-08-12T16:11:36.987Z,1.50
2018-08-12T16:14:05.243Z,1.53
2018-08-12T16:16:33.478Z,2.15
2018-08-12T16:19:01.732Z,1.53
2018-08-12T16:21:30.011Z,1.73
2018-08-12T16:23:58.365Z,5.07
2018-08-12T16:26:26.563Z,1.40
2018-08-12T16:28:54.948Z,2.10
2018-08-12T16:31:23.319Z,1.90
2018-08-12T16:33:51.861Z,2.50
2018-08-12T16:36:20.454Z,2.80
2018-08-12T16:38:48.784Z,3.77
2018-08-12T16:41:17.017Z,5.23
2018-08-12T16:43:45.360Z,2.93
2018-08-12T16:46:13.664Z,2.53
2018-08-12T16:48:41.892Z,6.93
2018-08-12T16:51:10.143Z,3.50
2018-08-12T16:53:38.461Z,2.43
2018-08-12T16:56:06.756Z,3.47
2018-08-12T16:58:35.048Z,3.30
2018-08-12T17:01:03.351Z,2.53
2018-08-12T17:03:31.609Z,2.23
2018-08-12T17:05:59.865Z,2.87
2018-08-12T17:08:28.103Z,3.67
2018-08-12T17:10:57.027Z,5.57
2018-08-12T17:13:25.300Z,2.57
2018-08-12T17:15:53.564Z,2.50
2018-08-12T17:18:22.160Z,4.77
2018-08-12T17:20:51.107Z,2.00
2018-08-12T17:23:19.356Z,2.20
2018-08-12T17:25:48.759Z,2.43
2018-08-12T17:28:16.987Z,3.10
2018-08-12T17:30:45.321Z,3.20
2018-08-12T17:33:13.862Z,3.57
2018-08-12T17:35:42.273Z,5.07
2018-08-12T17:38:10.715Z,4.73
2018-08-12T17:40:38.979Z,2.17
2018-08-12T17:43:07.300Z,1.93
2018-08-12T17:45:35.602Z,3.63
2018-08-12T17:48:03.856Z,3.03
2018-08-12T17:50:32.180Z,2.30
2018-08-12T17:53:00.464Z,2.60
2018-08-12T17:55:28.778Z,4.20
2018-08-12T17:57:57.085Z,4.37
2018-08-12T18:00:25.321Z,6.17
2018-08-12T18:02:53.653Z,6.23
2018-08-12T18:05:22.343Z,3.10
2018-08-12T18:07:50.591Z,4.77
2018-08-12T18:10:18.843Z,3.03
2018-08-12T18:12:47.103Z,3.87
2018-08-12T18:15:15.377Z,3.47
2018-08-12T18:17:43.678Z,3.97
2018-08-12T18:20:12.059Z,6.07
2018-08-12T18:22:40.358Z,2.40
2018-08-12T18:25:10.276Z,3.30
2018-08-12T18:27:38.559Z,3.90
2018-08-12T18:30:12.075Z,5.40
2018-08-12T18:32:40.390Z,5.50
2018-08-12T18:35:09.223Z,3.27
2018-08-12T18:37:37.515Z,3.30
2018-08-12T18:40:06.376Z,3.03
2018-08-12T18:42:34.691Z,2.70
2018-08-12T18:45:03.004Z,2.87
2018-08-12T18:47:31.254Z,2.97
2018-08-12T18:49:59.494Z,2.87
2018-08-12T18:52:27.827Z,3.67
2018-08-12T18:54:58.243Z,2.87
2018-08-12T18:57:26.525Z,5.10
2018-08-12T18:59:54.818Z,3.30
2018-08-12T19:02:23.151Z,3.63
2018-08-12T19:04:51.433Z,4.00
2018-08-12T19:07:19.654Z,3.47
2018-08-12T19:09:47.949Z,3.03
2018-08-12T19:12:16.175Z,3.87
2018-08-12T19:14:44.464Z,6.37
2018-08-12T19:17:12.708Z,2.37
2018-08-12T19:19:40.962Z,3.80
2018-08-12T19:22:09.192Z,3.83
2018-08-12T19:24:37.467Z,3.47
2018-08-12T19:27:05.776Z,2.97
2018-08-12T19:29:34.080Z,3.80
2018-08-12T19:32:02.370Z,3.73
2018-08-12T19:34:30.637Z,2.07
2018-08-12T19:36:58.888Z,2.87
2018-08-12T19:39:27.170Z,5.57
2018-08-12T19:41:55.484Z,4.20
2018-08-12T19:44:23.794Z,5.47
2018-08-12T19:46:52.061Z,5.67
2018-08-12T19:49:20.334Z,6.70
2018-08-12T19:51:48.676Z,8.83
2018-08-12T19:54:16.953Z,5.63
2018-08-12T19:56:45.224Z,5.00
2018-08-12T19:59:13.478Z,5.73
2018-08-12T20:01:41.754Z,4.77
2018-08-12T20:04:10.043Z,4.27
2018-08-12T20:06:38.437Z,2.70
2018-08-12T20:09:07.990Z,5.10
2018-08-12T20:11:36.360Z,4.03
2018-08-12T20:14:04.698Z,4.90
2018-08-12T20:16:33.004Z,5.50
2018-08-12T20:19:01.577Z,5.27
2018-08-12T20:21:29.809Z,5.33
2018-08-12T20:23:58.027Z,4.67
2018-08-12T20:26:26.309Z,3.03
2018-08-12T20:28:54.755Z,5.03
2018-08-12T20:31:23.213Z,4.53
2018-08-12T20:33:51.545Z,6.47
2018-08-12T20:36:19.809Z,3.60
2018-08-12T20:38:48.189Z,6.70
2018-08-12T20:41:16.471Z,3.60
2018-08-12T20:43:44.893Z,4.87
2018-08-12T20:46:13.120Z,5.10
2018-08-12T20:48:41.348Z,3.70
2018-08-12T20:51:09.887Z,5.57
2018-08-12T20:53:38.163Z,3.77
2018-08-12T20:56:06.385Z,3.97
2018-08-12T20:58:34.584Z,6.00
2018-08-12T21:01:02.834Z,5.23
2018-08-12T21:03:31.089Z,3.93
2018-08-12T21:05:59.367Z,5.63
2018-08-12T21:08:27.567Z,3.97
2018-08-12T21:10:55.781Z,4.67
2018-08-12T21:13:24.693Z,4.77
2018-08-12T21:15:52.893Z,5.40
2018-08-12T21:18:21.436Z,4.00
2018-08-12T21:20:49.671Z,3.53
2018-08-12T21:23:17.872Z,4.00
2018-08-12T21:25:46.139Z,5.03
2018-08-12T21:28:14.598Z,3.70
2018-08-12T21:30:42.885Z,2.70
2018-08-12T21:33:11.105Z,5.10
2018-08-12T21:35:39.314Z,3.97
2018-08-12T21:38:07.543Z,5.27
2018-08-12T21:40:35.733Z,3.37
2018-08-12T21:43:03.983Z,3.27
2018-08-12T21:45:32.174Z,2.80
2018-08-12T21:48:00.438Z,3.90
2018-08-12T21:50:28.872Z,3.57
2018-08-12T21:52:57.136Z,4.90
2018-08-12T21:55:25.562Z,3.40
2018-08-12T21:57:53.788Z,3.67
2018-08-12T22:00:22.583Z,4.07
2018-08-12T22:02:50.874Z,4.30
2018-08-12T22:05:19.130Z,3.70
2018-08-12T22:07:48.242Z,2.63
2018-08-12T22:10:16.453Z,3.67
2018-08-12T22:12:44.756Z,3.90
2018-08-12T22:15:12.962Z,3.10
2018-08-12T22:17:41.259Z,2.40
2018-08-12T22:20:09.485Z,3.53
2018-08-12T22:22:37.702Z,5.27
2018-08-12T22:25:05.956Z,3.93
2018-08-12T22:27:34.189Z,4.57
2018-08-12T22:30:02.431Z,3.00
2018-08-12T22:32:30.684Z,3.40
2018-08-12T22:34:59.743Z,3.47
2018-08-12T22:37:28.011Z,4.00
2018-08-12T22:39:57.041Z,3.47
2018-08-12T22:42:25.311Z,5.53
2018-08-12T22:44:53.649Z,4.70
2018-08-12T22:47:22.075Z,3.43
2018-08-12T22:49:50.339Z,6.70
2018-08-12T22:52:19.388Z,4.10
2018-08-12T22:54:47.599Z,4.87
2018-08-12T22:57:15.807Z,5.20
2018-08-12T22:59:44.083Z,3.40
2018-08-12T23:02:12.409Z,3.80
2018-08-12T23:04:40.642Z,4.43
2018-08-12T23:07:09.016Z,5.83
2018-08-12T23:09:37.406Z,4.73
2018-08-12T23:12:05.818Z,5.80
2018-08-12T23:14:34.065Z,3.60
2018-08-12T23:17:02.473Z,4.80
2018-08-12T23:19:31.042Z,7.60
2018-08-12T23:21:59.289Z,4.17
2018-08-12T23:24:27.507Z,5.57
2018-08-12T23:26:55.825Z,5.73
2018-08-12T23:29:24.076Z,3.60
2018-08-12T23:31:52.343Z,5.37
2018-08-12T23:34:20.823Z,4.13
2018-08-12T23:36:49.153Z,4.40
2018-08-12T23:39:17.411Z,4.67
2018-08-12T23:41:45.696Z,6.03
2018-08-12T23:44:14.023Z,4.87
2018-08-12T23:46:42.395Z,5.00
2018-08-12T23:49:18.608Z,5.47
2018-08-12T23:51:49.320Z,5.63
2018-08-12T23:54:25.163Z,4.40
2018-08-12T23:56:53.751Z,5.43
2018-08-12T23:59:22.216Z,8.63
